• Join FlightAware (Why Join?)
  • Login
  • US Flag 
04:18PM EDT


 

Airport Tracker/Info


-or-


 

Live Flight TrackerFlight Track Log ✈ N54108 ✈ 22-May-2013 ✈ T94 - 6R6

Flight Track Log - Related Links

Times and Time Zones

All times are in EDT time to prevent confusion due to time zone crossing. See the N54108 flight status page for this flight to view local times or setup timezone preferences in your user account.

Time Position Orientation Groundspeed Altitude Reporting Facility
EDT Latitude Longitude Course Direction KTS MPH feet Rate Location/Type
08:17AM 29.7547 -98.3372 279° West 114 131 4,300  Level Houston Center
08:19AM 29.7581 -98.3731 276° West 106 122 4,300  Level Houston Center
08:19AM 29.7628 -98.4036 280° West 105 121 4,400  Climbing Houston Center
08:20AM 29.7681 -98.4367 280° West 106 122 4,400  Level Houston Center
08:21AM 29.7714 -98.4725 276° West 106 122 4,500  Climbing Houston Center
08:22AM 29.7722 -98.5061 272° West 109 125 4,500  Level Houston Center
08:23AM 29.6153 -98.7889 279° West  Level Estimated
08:24AM 29.7778 -98.5439 280° West 109 125 4,500  Level Houston Center
08:25AM 29.7806 -98.5747 276° West 100 115 5,000 420 Climbing Houston Center
08:26AM 29.7814 -98.6061 272° West 89 102 5,500 420 Climbing Houston Center
08:27AM 29.7861 -98.6344 281° West 87 100 5,900 360 Climbing Houston Center
08:28AM 29.7881 -98.6581 275° West 83 96 6,200 300 Climbing Houston Center
08:28AM 29.7881 -98.6633 270° West 82 94 6,300 180 Climbing Houston Center
08:29AM 29.7908 -98.6867 278° West 87 100 6,400  Climbing Houston Center
08:29AM 29.7919 -98.6939 280° West 90 104 6,300 -540 Descending Houston Center
08:30AM 29.7981 -98.7219 284° West 105 121 5,900 -600 Descending Houston Center
08:30AM 29.7992 -98.7269 284° West 103 119 5,700 -600 Descending Houston Center
08:31AM 29.8011 -98.7553 275° West 112 129 5,300 -600 Descending Houston Center
08:31AM 29.8022 -98.7647 278° West 110 127 5,100 -540 Descending Houston Center
08:32AM 29.8042 -98.7911 275° West 115 132 4,800 -420 Descending Houston Center
08:32AM 29.8050 -98.8017 275° West 114 131 4,700 -240 Descending Houston Center
08:33AM 29.8075 -98.8269 277° West 113 130 4,600 -120 Descending Houston Center
08:33AM 29.8094 -98.8378 282° West 115 132 4,600  Level Houston Center
08:34AM 29.8133 -98.8753 277° West 111 128 4,600 -60 Level Houston Center
08:35AM 29.8161 -98.9078 276° West 104 120 4,500 -60 Descending Houston Center
08:36AM 29.8197 -98.9431 277° West 110 127 4,500  Level Houston Center
08:37AM 29.8211 -98.9808 272° West 109 125 4,500 -60 Level Houston Center
08:38AM 29.8228 -99.0153 273° West 108 124 4,400 -60 Descending Houston Center
08:39AM 29.8236 -99.0533 271° West 110 127 4,400  Level Houston Center
08:40AM 29.8275 -99.0844 278° West 114 131 4,400  Level Houston Center
08:41AM 29.8286 -99.1211 272° West 115 132 4,400 -60 Level Houston Center
08:42AM 29.8322 -99.1556 277° West 111 128 4,300  Descending Houston Center
08:43AM 29.8347 -99.1986 274° West 114 131 4,400  Climbing Houston Center
08:44AM 29.8367 -99.2344 274° West 114 131 4,400  Level Houston Center
08:45AM 29.8414 -99.2703 279° West 109 125 4,500 60 Climbing Houston Center
08:46AM 29.8439 -99.3036 275° West 110 127 4,600  Climbing Houston Center
08:47AM 29.8461 -99.3381 274° West 107 123 4,600  Level Houston Center
08:48AM 29.8517 -99.3731 280° West 109 125 4,600 -60 Level Houston Center
08:49AM 29.8583 -99.4178 280° West 117 135 4,500 -120 Descending Houston Center
08:50AM 29.8619 -99.4536 277° West 116 133 4,400 -60 Descending Houston Center
08:51AM 29.8658 -99.4894 277° West 114 131 4,400 -60 Level Houston Center
08:52AM 29.8697 -99.5244 277° West 113 130 4,300  Descending Houston Center
08:54AM 29.8725 -99.5592 275° West 110 127 4,400 60 Climbing Houston Center
08:55AM 29.8758 -99.5939 276° West 110 127 4,500  Climbing Houston Center
08:56AM 29.8778 -99.6297 274° West 110 127 4,500  Level Houston Center
08:57AM 29.8831 -99.6706 278° West 109 125 4,600  Climbing Houston Center
08:58AM 29.8869 -99.7053 277° West 110 127 4,600 -60 Level Houston Center
08:59AM 29.8900 -99.7411 276° West 110 127 4,500  Descending Houston Center
09:00AM 29.8953 -99.7775 280° West 113 130 4,600 240 Climbing Houston Center
09:01AM 29.8989 -99.8108 277° West 110 127 5,000 420 Climbing Houston Center
09:02AM 29.9025 -99.8369 279° West 97 112 5,500 480 Climbing Houston Center
09:03AM 29.9050 -99.8636 276° West 89 102 6,000 480 Climbing Houston Center
09:04AM 29.9083 -99.8956 277° West 85 98 6,500 240 Climbing Houston Center
09:05AM 29.9119 -99.9247 278° West 87 100 6,600 240 Climbing Houston Center
09:06AM 29.9156 -99.9531 278° West 89 102 7,000 300 Climbing Houston Center
09:07AM 29.9183 -99.9817 276° West 89 102 7,300 300 Climbing Houston Center
09:08AM 29.9211 -100.0108 276° West 90 104 7,700 300 Climbing Houston Center
09:09AM 29.9236 -100.0408 275° West 92 106 8,000 300 Climbing Houston Center
09:10AM 29.9250 -100.0703 273° West 92 106 8,400 300 Climbing Houston Center
09:11AM 29.9256 -100.1075 271° West 95 109 8,700 180 Climbing Houston Center
09:12AM 29.9272 -100.1381 274° West 95 109 8,800 180 Climbing Houston Center
09:13AM 29.9303 -100.1678 277° West 94 108 9,100 240 Climbing Houston Center
09:14AM 29.9331 -100.1956 277° West 91 105 9,300 240 Climbing Houston Center
09:15AM 29.9369 -100.2244 279° West 90 104 9,700 240 Climbing Houston Center
09:16AM 29.9394 -100.2531 276° West 90 104 9,900 240 Climbing Houston Center
09:17AM 29.9431 -100.2814 278° West 89 102 10,200 240 Climbing Houston Center
09:18AM 29.9444 -100.3108 273° West 90 104 10,400 120 Climbing Houston Center
09:19AM 29.9442 -100.3475 270° West 92 106 10,500  Climbing Houston Center
09:20AM 29.9439 -100.3789 269° West 96 110 10,500  Level Houston Center
09:21AM 29.9475 -100.4106 278° West 98 113 10,500 -60 Level Houston Center
09:22AM 29.9494 -100.4425 274° West 100 115 10,400 -120 Descending Houston Center
09:23AM 29.9514 -100.4750 274° West 100 115 10,300 -120 Descending Houston Center
09:24AM 29.9531 -100.5078 273° West 101 116 10,200 -60 Descending Houston Center
09:25AM 29.9558 -100.5406 276° West 102 117 10,200 -60 Level Houston Center
09:26AM 29.9586 -100.5792 275° West 101 116 10,100 -120 Descending Houston Center
09:28AM 29.9619 -100.6114 277° West 102 117 10,000 -60 Descending Houston Center
09:29AM 29.9644 -100.6444 275° West 102 117 10,000 -60 Level Houston Center
09:30AM 29.9644 -100.6767 270° West 102 117 9,900  Descending Houston Center
09:31AM 29.9664 -100.7089 274° West 101 116 10,000  Climbing Houston Center
09:32AM 29.9689 -100.7394 275° West 99 114 9,900 -60 Descending Houston Center
09:33AM 29.9728 -100.7706 278° West 98 113 9,900 -180 Level Houston Center
09:34AM 29.9794 -100.8108 281° West 102 117 9,600 -300 Descending Houston Center
09:35AM 29.9833 -100.8467 277° West 108 124 9,300 -360 Descending Houston Center
09:36AM 29.9872 -100.8831 277° West 111 128 8,900 -300 Descending Houston Center
09:37AM 29.9883 -100.9189 272° West 112 129 8,700 -180 Descending Houston Center
09:38AM 29.9906 -100.9536 274° West 111 128 8,600 -120 Descending Houston Center
09:39AM 29.9911 -100.9881 271° West 109 125 8,500 -120 Descending Houston Center
09:40AM 29.9922 -101.0208 272° West 106 122 8,400 -60 Descending Houston Center
09:41AM 29.9936 -101.0603 272° West 104 120 8,400  Level Houston Center
09:42AM 29.9964 -101.0908 276° West 100 115 8,400  Level Houston Center
09:43AM 29.9981 -101.1219 274° West 98 113 8,500  Climbing Houston Center
09:44AM 30.0003 -101.1544 275° West 99 114 8,500  Level Houston Center
09:45AM 30.0022 -101.1869 274° West 101 116 8,500 -60 Level Houston Center
09:46AM 30.0039 -101.2189 273° West 101 116 8,400 -60 Descending Houston Center
09:47AM 30.0064 -101.2506 275° West 101 116 8,400  Level Houston Center
09:48AM 30.0092 -101.2886 275° West 99 114 8,500  Climbing Houston Center
09:49AM 30.0103 -101.3208 272° West 100 115 8,500  Level Houston Center
09:50AM 30.0122 -101.3533 274° West 101 116 8,600  Climbing Houston Center
09:51AM 30.0156 -101.3861 277° West 104 120 8,500 -60 Descending Houston Center
09:52AM 30.0169 -101.4192 273° West 103 119 8,500  Level Houston Center
09:53AM 30.0186 -101.4508 273° West 101 116 8,500  Level Houston Center
09:54AM 30.0217 -101.4833 276° West 101 116 8,500  Level Houston Center
09:55AM 30.0217 -101.5150 270° West 100 115 8,500  Level Houston Center
09:57AM 30.0088 -101.5557 250° West  Level FlightAware Approximate
10:04AM 30.0144 -101.8132 274° West  Level FlightAware Approximate